Flight Track Log - Related Links

Times and Time Zones

All times are in EDT time to prevent confusion due to time zone crossing. See the EGF2566 flight status page for this flight to view local times or setup timezone preferences in your user account.

Time Position Orientation Groundspeed Altitude Reporting Facility
EDT Latitude Longitude Course Direction KTS MPH feet Rate Location/Type
Sun 08:33:00 PM 30.6397 -91.3961 297° West  Level Estimated
Sun 08:34:00 PM 30.6751 -91.4783 297° West  Level Estimated
Sun 08:35:00 PM 30.7106 -91.5605 297° West  Level Estimated
Sun 08:36:00 PM 30.7459 -91.6428 297° West  Level Estimated
Sun 08:37:00 PM 30.7812 -91.7252 297° West  Level Estimated
Sun 08:38:00 PM 30.8165 -91.8076 296° West  Level Estimated
Sun 08:39:00 PM 30.8517 -91.8901 296° West  Level Estimated
Sun 08:40:00 PM 30.8869 -91.9727 296° West  Level Estimated
Sun 08:41:00 PM 30.9220 -92.0553 296° West  Level Estimated
Sun 08:42:00 PM 30.9571 -92.1380 296° West  Level Estimated
Sun 08:43:00 PM 30.9921 -92.2207 296° West  Level Estimated
Sun 08:44:00 PM 31.0270 -92.3035 296° West  Level Estimated
Sun 08:45:00 PM 31.0619 -92.3864 296° West  Level Estimated
Sun 08:46:00 PM 31.0968 -92.4693 296° West  Level Estimated
Sun 08:47:00 PM 31.1316 -92.5523 296° West  Level Estimated
Sun 08:48:00 PM 31.1663 -92.6353 296° West  Level Estimated
Sun 08:49:00 PM 31.2010 -92.7184 296° West  Level Estimated
Sun 08:50:00 PM 31.2356 -92.8016 296° West  Level Estimated
Sun 08:51:00 PM 31.2702 -92.8848 296° West  Level Estimated
Sun 08:52:00 PM 31.3048 -92.9680 296° West  Level Estimated
Sun 08:53:00 PM 31.3392 -93.0514 296° West  Level Estimated
Sun 08:54:00 PM 31.3736 -93.1348 296° West  Level Estimated
Sun 08:55:00 PM 31.4080 -93.2183 296° West  Level Estimated
Sun 08:56:00 PM 31.4423 -93.3018 296° West  Level Estimated
Sun 08:57:00 PM 31.4766 -93.3854 296° West  Level Estimated
Sun 08:58:00 PM 31.5108 -93.4690 296° West  Level Estimated
Sun 08:59:00 PM 31.5449 -93.5527 296° West  Level Estimated
Sun 09:00:00 PM 31.5790 -93.6365 296° West  Level Estimated
Sun 09:01:00 PM 31.6131 -93.7203 296° West  Level Estimated
Sun 09:02:00 PM 31.6471 -93.8042 295° West  Level Estimated
Sun 09:03:00 PM 31.6810 -93.8882 295° West  Level Estimated
Sun 09:04:00 PM 31.7149 -93.9722 295° West  Level Estimated
Sun 09:05:00 PM 31.7487 -94.0563 295° West  Level Estimated
Sun 09:06:00 PM 31.7824 -94.1404 295° West  Level Estimated
Sun 09:07:00 PM 31.8162 -94.2246 295° West  Level Estimated
Sun 09:08:00 PM 31.8498 -94.3089 295° West  Level Estimated
Sun 09:09:00 PM 31.8834 -94.3932 295° West  Level Estimated
Sun 09:10:00 PM 31.9170 -94.4776 295° West  Level Estimated
Sun 09:11:00 PM 31.9504 -94.5620 295° West  Level Estimated
Sun 09:12:00 PM 31.9839 -94.6466 295° West  Level Estimated
Sun 09:13:00 PM 32.0173 -94.7311 295° West  Level Estimated
Sun 09:14:00 PM 32.0506 -94.8158 295° West  Level Estimated
Sun 09:15:00 PM 32.0838 -94.9005 295° West  Level Estimated
Sun 09:16:00 PM 32.1170 -94.9852 295° West  Level Estimated
Sun 09:17:00 PM 32.1502 -95.0700 295° West  Level Estimated
Sun 09:18:00 PM 32.1833 -95.1549 295° West  Level Estimated
Sun 09:19:00 PM 32.2163 -95.2398 295° West  Level Estimated
Sun 09:20:00 PM 32.2493 -95.3248 295° West  Level Estimated
Sun 09:21:00 PM 32.2822 -95.4099 295° West  Level Estimated
Sun 09:22:00 PM 32.3151 -95.4950 295° West  Level Estimated
Sun 09:23:00 PM 32.3479 -95.5802 295° West  Level Estimated
Sun 09:24:00 PM 32.3806 -95.6655 294° West  Level Estimated
Sun 09:25:00 PM 32.4133 -95.7508 294° West  Level Estimated
Sun 09:26:00 PM 32.4460 -95.8361 294° West  Level Estimated
Sun 09:27:00 PM 32.4786 -95.9216 294° West  Level Estimated
Sun 09:28:00 PM 32.5111 -96.0071 294° West  Level Estimated
Sun 09:29:00 PM 32.5435 -96.0926 294° West  Level Estimated
Sun 09:30:00 PM 32.5759 -96.1783 294° West  Level Estimated
Sun 09:31:00 PM 32.6083 -96.2639 294° West  Level Estimated
Sun 09:32:00 PM 32.6406 -96.3497 294° West  Level Estimated
Sun 09:33:00 PM 32.6728 -96.4355 294° West  Level Estimated
Sun 09:34:00 PM 32.7050 -96.5213 294° West  Level Estimated
Sun 09:35:00 PM 32.7371 -96.6073 294° West  Level Estimated
Sun 09:36:00 PM 32.7691 -96.6933 294° West  Level Estimated

Login

Don't have an account? Register now (free) for customized features, flight alerts, and more!